Terminal Aerodrome Forecast
Issued by NWS Sioux Falls, SD

Home | Current Version | Previous Version | Graphics & Text | Print | Product List | Glossary On
Versions: 1 2 3 4 5 6 7 8 9 10 11 12 13 14 15
000
FTUS43 KFSD 221734
TAFSUX
TAF
KSUX 221734Z 2218/2318 18020G28KT P6SM FEW130
     FM230200 17012KT P6SM SCT130 WS020/19043KT
     FM231000 16008KT P6SM FEW250
     FM231500 17010G18KT P6SM SCT200=

USA.gov is the U.S. government's official web portal to all federal, state and local government web resources and services.